Time;durP1;ratioP1;P1;durP2;ratioP2;P2;SDS_P1;SDS_P2;PMS_P1;PMS_P2;Temp;Humidity;BMP_temperature;BMP_pressure;BME280_temperature;BME280_humidity;BME280_pressure;Samples;Min_cycle;Max_cycle;Signal;HPM_P1;HPM_P2
2022/03/20 00:00:14;;;;;;;9.73;3.22;;;;;;;3.94;54.18;103656.63;5045292;28;20085;-64
2022/03/20 00:02:41;;;;;;;5.38;2.35;;;;;;;3.88;54.36;103658.75;5045243;28;20025;-64
2022/03/20 00:05:07;;;;;;;6.20;3.10;;;;;;;3.77;54.44;103655.41;5045240;28;20029;-64
2022/03/20 00:07:34;;;;;;;6.38;2.75;;;;;;;3.71;54.67;103656.75;5045122;28;20397;-64
2022/03/20 00:10:01;;;;;;;12.77;4.22;;;;;;;3.55;54.77;103636.75;5045431;28;20088;-64
2022/03/20 00:12:27;;;;;;;4.55;2.35;;;;;;;3.49;54.82;103643.09;5044890;28;20029;-64
2022/03/20 00:14:52;;;;;;;5.30;1.90;;;;;;;3.50;55.30;103648.34;5044857;28;20037;-64
2022/03/20 00:17:20;;;;;;;4.57;1.77;;;;;;;3.49;55.39;103649.16;5045020;28;20036;-64
2022/03/20 00:19:46;;;;;;;4.90;2.15;;;;;;;3.51;55.28;103644.13;5045198;28;20029;-64
2022/03/20 00:22:12;;;;;;;4.28;1.98;;;;;;;3.49;55.33;103651.72;5011191;28;20052;-64
2022/03/20 00:24:40;;;;;;;5.30;2.55;;;;;;;3.43;55.43;103641.91;5045334;28;20045;-64
2022/03/20 00:27:07;;;;;;;3.65;1.80;;;;;;;3.47;55.65;103640.44;5044534;28;20044;-64
2022/03/20 00:29:33;;;;;;;6.03;1.90;;;;;;;3.53;55.92;103647.72;5044895;28;20088;-64
2022/03/20 00:31:58;;;;;;;5.18;2.08;;;;;;;3.62;55.86;103634.63;5026710;28;20033;-64
2022/03/20 00:34:24;;;;;;;9.43;3.13;;;;;;;3.66;55.79;103641.78;5044781;28;20018;-64
2022/03/20 00:36:49;;;;;;;9.50;2.42;;;;;;;3.66;55.70;103634.97;5044388;28;20026;-64
2022/03/20 00:39:14;;;;;;;5.30;2.30;;;;;;;3.62;55.75;103648.38;5044489;28;20489;-64
2022/03/20 00:41:40;;;;;;;4.72;2.00;;;;;;;3.55;55.91;103634.19;5044219;28;20048;-64
2022/03/20 00:44:05;;;;;;;6.95;2.30;;;;;;;3.52;55.88;103633.97;5044359;28;20085;-64
2022/03/20 00:46:31;;;;;;;4.57;1.70;;;;;;;3.55;55.90;103640.97;5044546;28;20017;-64
2022/03/20 00:48:56;;;;;;;5.50;2.08;;;;;;;3.61;55.87;103638.00;5044904;28;20047;-64
2022/03/20 00:51:21;;;;;;;6.45;1.75;;;;;;;3.68;55.66;103638.53;5044714;28;20086;-64
2022/03/20 00:53:47;;;;;;;7.38;2.13;;;;;;;3.74;55.50;103640.66;5044442;28;20291;-64
2022/03/20 00:56:15;;;;;;;3.58;1.77;;;;;;;3.78;55.34;103637.53;5044122;28;20047;-64
2022/03/20 00:58:41;;;;;;;6.50;1.90;;;;;;;3.86;55.10;103629.47;5044445;28;20021;-64
2022/03/20 01:01:09;;;;;;;4.15;2.05;;;;;;;3.99;54.94;103636.38;5044357;28;20044;-64
2022/03/20 01:03:35;;;;;;;3.58;1.90;;;;;;;3.92;54.87;103622.19;5026182;28;20037;-64
2022/03/20 01:06:01;;;;;;;3.83;1.50;;;;;;;4.06;54.65;103636.03;5043956;28;20021;-64
2022/03/20 01:08:26;;;;;;;4.70;1.90;;;;;;;4.13;54.40;103638.25;5044001;28;20036;-64
2022/03/20 01:10:51;;;;;;;4.00;1.83;;;;;;;4.17;54.13;103632.53;5043737;28;20021;-64
2022/03/20 01:13:17;;;;;;;3.38;1.67;;;;;;;4.12;54.22;103635.59;5044011;28;20022;-64
2022/03/20 01:15:43;;;;;;;5.35;2.00;;;;;;;4.06;54.22;103634.34;5043730;28;20026;-64
2022/03/20 01:18:08;;;;;;;5.07;2.00;;;;;;;4.09;54.22;103625.94;5043990;28;20034;-64
2022/03/20 01:20:34;;;;;;;3.53;1.90;;;;;;;4.04;54.08;103624.75;5043727;28;20025;-64
2022/03/20 01:23:00;;;;;;;5.75;2.00;;;;;;;4.08;54.23;103626.75;5043843;28;20048;-64
2022/03/20 01:25:25;;;;;;;7.43;2.03;;;;;;;4.11;54.06;103631.22;5043753;28;20017;-64
2022/03/20 01:27:51;;;;;;;5.43;1.75;;;;;;;4.40;53.11;103638.41;5043192;28;20017;-64
2022/03/20 01:30:16;;;;;;;5.22;2.22;;;;;;;4.17;53.74;103635.13;5043999;28;20021;-64
2022/03/20 01:32:42;;;;;;;4.70;1.83;;;;;;;3.97;54.21;103623.44;5043728;28;20076;-65
2022/03/20 01:35:09;;;;;;;7.55;2.53;;;;;;;3.86;54.49;103634.63;5043688;28;20026;-65
2022/03/20 01:37:35;;;;;;;1.73;1.23;;;;;;;3.83;54.96;103632.72;5043481;28;20030;-64
2022/03/20 01:40:01;;;;;;;4.07;1.67;;;;;;;3.64;55.59;103626.28;5043484;28;20080;-65
2022/03/20 01:42:26;;;;;;;3.60;1.75;;;;;;;3.44;56.10;103629.94;5043076;28;20093;-65
2022/03/20 01:44:52;;;;;;;3.55;2.33;;;;;;;3.39;56.39;103631.25;5043428;28;20082;-64
2022/03/20 01:47:18;;;;;;;2.83;1.42;;;;;;;3.38;56.67;103630.38;5043399;28;20025;-65
2022/03/20 01:49:43;;;;;;;6.20;1.92;;;;;;;3.30;56.91;103626.34;5043428;28;20056;-64
2022/03/20 01:52:11;;;;;;;1.70;0.95;;;;;;;3.40;56.85;103620.22;5043090;28;20026;-65
2022/03/20 01:54:38;;;;;;;2.35;1.00;;;;;;;3.34;57.05;103623.22;5043352;28;20021;-64
2022/03/20 01:57:04;;;;;;;3.65;1.88;;;;;;;3.26;57.18;103625.22;5042821;28;20022;-65
2022/03/20 01:59:29;;;;;;;6.35;1.88;;;;;;;3.17;57.36;103610.03;5025534;28;20021;-65
2022/03/20 02:01:54;;;;;;;3.47;1.27;;;;;;;3.10;57.47;103616.38;5043048;28;20025;-65
2022/03/20 02:04:20;;;;;;;3.20;1.55;;;;;;;3.07;57.70;103615.25;5043211;28;20018;-64
2022/03/20 02:06:46;;;;;;;3.45;1.52;;;;;;;3.10;57.83;103616.38;5042915;28;20025;-65
2022/03/20 02:09:13;;;;;;;5.40;2.10;;;;;;;3.11;57.90;103604.44;5043093;28;20490;-64
2022/03/20 02:11:40;;;;;;;4.68;1.42;;;;;;;3.13;57.90;103608.00;5042877;28;20025;-64
2022/03/20 02:14:06;;;;;;;9.45;1.88;;;;;;;3.08;58.04;103615.38;5025135;28;20436;-65
2022/03/20 02:16:31;;;;;;;4.38;1.70;;;;;;;2.96;58.14;103609.31;5042758;28;20032;-64
2022/03/20 02:18:57;;;;;;;9.27;2.08;;;;;;;2.92;58.45;103608.22;5043055;28;20033;-64
2022/03/20 02:21:55;;;;;;;6.15;2.17;;;;;;;2.88;58.46;103607.84;5042997;28;20104;-64
2022/03/20 02:24:26;;;;;;;4.50;1.70;;;;;;;2.77;58.64;103607.03;4998764;28;20389;-64
2022/03/20 02:27:17;;;;;;;2.53;1.50;;;;;;;2.70;58.69;103611.69;5042361;28;20033;-64
2022/03/20 02:29:47;;;;;;;3.38;1.65;;;;;;;2.69;59.04;103594.53;5042951;28;20258;-64
2022/03/20 02:32:19;;;;;;;6.88;2.22;;;;;;;2.63;59.29;103598.28;5042733;28;20033;-64
2022/03/20 02:34:47;;;;;;;3.80;2.00;;;;;;;2.60;59.43;103591.28;5042713;28;20025;-64
2022/03/20 02:37:13;;;;;;;3.35;1.60;;;;;;;2.66;59.69;103603.66;5042651;28;20025;-64
2022/03/20 02:39:40;;;;;;;5.95;1.58;;;;;;;2.59;60.07;103592.94;5042824;28;20056;-64
2022/03/20 02:42:07;;;;;;;5.57;1.75;;;;;;;2.71;59.95;103581.81;5042485;28;20021;-64
2022/03/20 02:44:59;;;;;;;1.23;0.80;;;;;;;2.85;59.87;103598.25;5042690;28;20529;-66
2022/03/20 02:47:29;;;;;;;5.22;1.10;;;;;;;2.77;59.88;103591.63;5042756;28;20498;-64
2022/03/20 02:50:13;;;;;;;4.15;1.13;;;;;;;2.71;60.10;103587.84;5043576;28;20392;-64
2022/03/20 02:52:47;;;;;;;7.63;1.75;;;;;;;2.65;60.11;103584.78;5042743;28;20388;-64
2022/03/20 02:55:24;;;;;;;4.22;1.88;;;;;;;2.48;60.38;103589.56;5042587;28;20029;-63
2022/03/20 02:57:51;;;;;;;4.32;1.73;;;;;;;2.43;60.52;103596.00;5041987;28;20570;-64
2022/03/20 03:00:21;;;;;;;4.68;1.63;;;;;;;2.43;60.70;103584.84;5042642;28;20048;-66
2022/03/20 03:02:47;;;;;;;3.72;1.60;;;;;;;2.43;60.89;103585.72;5043496;28;20025;-67
2022/03/20 03:05:17;;;;;;;3.35;1.77;;;;;;;2.44;60.85;103586.63;5046493;28;20037;-64
2022/03/20 03:13:15;;;;;;;8.15;1.80;;;;;;;2.41;61.14;103587.28;5046175;28;20040;-64
2022/03/20 03:15:41;;;;;;;3.35;1.83;;;;;;;2.44;61.10;103586.63;5046482;28;20053;-64
2022/03/20 03:18:07;;;;;;;1.75;1.27;;;;;;;2.41;61.24;103586.41;5046219;28;20057;-63
2022/03/20 03:20:33;;;;;;;3.20;1.60;;;;;;;2.24;61.36;103568.03;5046300;28;20057;-64
2022/03/20 03:22:58;;;;;;;3.25;1.77;;;;;;;2.19;61.56;103575.38;5046205;28;20434;-63
2022/03/20 03:25:24;;;;;;;4.90;1.80;;;;;;;2.22;61.65;103570.47;5045887;28;20025;-64
2022/03/20 03:27:51;;;;;;;9.20;1.73;;;;;;;2.16;61.79;103566.53;5045719;28;20018;-64
2022/03/20 03:30:16;;;;;;;6.72;1.55;;;;;;;2.22;61.78;103580.72;5046116;28;20532;-64
2022/03/20 03:32:43;;;;;;;4.15;1.50;;;;;;;2.25;61.74;103566.38;5046034;28;20030;-64
2022/03/20 03:37:57;;;;;;;5.68;1.80;;;;;;;2.31;61.85;103566.84;5045700;28;20397;-63
2022/03/20 03:40:22;;;;;;;7.47;1.92;;;;;;;2.27;61.87;103563.13;5046059;28;20088;-64
2022/03/20 03:42:48;;;;;;;6.28;2.05;;;;;;;2.23;61.98;103559.47;5045529;28;20389;-63
2022/03/20 03:45:13;;;;;;;6.93;1.85;;;;;;;2.22;62.00;103551.66;5046002;28;20029;-63
2022/03/20 03:47:40;;;;;;;4.68;2.10;;;;;;;2.20;61.90;103559.22;5027766;28;20036;-63
2022/03/20 03:50:06;;;;;;;8.95;1.90;;;;;;;2.19;61.75;103559.97;5045711;28;20020;-63
2022/03/20 03:52:32;;;;;;;4.97;2.25;;;;;;;2.19;61.67;103554.84;5045612;28;20048;-63
2022/03/20 03:54:57;;;;;;;3.30;2.22;;;;;;;2.22;61.67;103560.22;5045532;28;20378;-64
2022/03/20 03:57:22;;;;;;;3.88;1.83;;;;;;;2.22;61.52;103565.34;5044925;28;20040;-63
2022/03/20 03:59:48;;;;;;;5.63;2.42;;;;;;;2.22;61.65;103561.91;5045598;28;20429;-63
2022/03/20 04:02:14;;;;;;;9.32;2.25;;;;;;;2.07;61.72;103546.22;5045469;28;20017;-63
2022/03/20 04:04:41;;;;;;;3.88;1.70;;;;;;;2.15;61.69;103567.31;5027487;28;20025;-63
2022/03/20 04:07:07;;;;;;;4.82;2.45;;;;;;;2.17;61.75;103560.66;5045089;28;20022;-63
2022/03/20 04:09:32;;;;;;;3.05;1.85;;;;;;;2.27;61.47;103567.41;5045348;28;20531;-63
2022/03/20 04:11:58;;;;;;;5.13;2.20;;;;;;;2.26;61.57;103566.50;5045086;28;20040;-63
2022/03/20 04:14:24;;;;;;;4.15;2.03;;;;;;;2.20;61.68;103558.31;5027372;28;20025;-63
2022/03/20 04:16:50;;;;;;;4.05;1.80;;;;;;;2.06;61.56;103534.19;5045173;28;20018;-64
2022/03/20 04:19:15;;;;;;;4.32;1.60;;;;;;;2.22;61.63;103559.34;5045071;28;20456;-63
2022/03/20 04:21:41;;;;;;;4.28;1.73;;;;;;;2.31;61.43;103562.63;5045065;28;20093;-64
2022/03/20 04:24:07;;;;;;;5.43;1.90;;;;;;;2.37;61.34;103559.63;5027298;28;20025;-64
2022/03/20 04:26:34;;;;;;;6.25;2.10;;;;;;;2.33;61.40;103563.59;5044516;28;20048;-64
2022/03/20 04:29:00;;;;;;;4.10;1.65;;;;;;;2.27;61.42;103559.69;5044808;28;20026;-63
2022/03/20 04:31:26;;;;;;;4.63;1.83;;;;;;;2.29;61.47;103561.59;5044851;28;20029;-63
2022/03/20 04:33:56;;;;;;;5.65;2.10;;;;;;;2.21;61.66;103553.31;5044639;28;20105;-65
2022/03/20 04:36:23;;;;;;;3.72;1.40;;;;;;;2.23;61.41;103566.25;5044807;28;20017;-62
2022/03/20 04:38:54;;;;;;;2.30;1.60;;;;;;;2.26;61.40;103558.78;5044436;28;20045;-62
2022/03/20 04:41:20;;;;;;;4.00;1.80;;;;;;;2.02;61.88;103563.81;5044468;28;20021;-65
2022/03/20 04:43:47;;;;;;;3.70;1.67;;;;;;;2.01;62.28;103564.59;5044795;28;20032;-62
2022/03/20 04:46:13;;;;;;;6.18;1.25;;;;;;;2.10;62.09;103551.59;5044475;28;20091;-62
2022/03/20 04:59:35;;;;;;;1.42;0.82;;;;;;;2.10;62.00;103562.75;5044512;28;20032;-63
2022/03/20 05:02:00;;;;;;;3.30;1.40;;;;;;;2.09;61.88;103553.25;5044110;28;20026;-66
2022/03/20 05:04:26;;;;;;;2.40;1.40;;;;;;;2.16;61.89;103554.63;5043881;28;20026;-64
2022/03/20 05:06:51;;;;;;;3.33;1.55;;;;;;;2.27;61.31;103564.81;5043921;28;20104;-64
2022/03/20 05:14:45;;;;;;;2.85;1.85;;;;;;;2.05;61.29;103532.38;5044175;28;20083;-64
2022/03/20 05:17:10;;;;;;;6.88;1.75;;;;;;;2.19;60.97;103552.28;5043785;28;20432;-64
2022/03/20 05:19:37;;;;;;;4.38;1.40;;;;;;;2.23;60.82;103561.13;5043907;28;20032;-64
2022/03/20 05:22:04;;;;;;;4.75;1.70;;;;;;;2.26;60.89;103560.47;5043737;28;20048;-66
2022/03/20 05:24:29;;;;;;;2.63;1.67;;;;;;;2.46;60.39;103565.44;5043937;28;20084;-63
2022/03/20 05:26:55;;;;;;;7.50;1.65;;;;;;;2.60;60.20;103560.50;5024634;28;20115;-63
2022/03/20 05:29:20;;;;;;;9.00;2.42;;;;;;;2.77;59.85;103565.97;5043687;28;20026;-63
2022/03/20 05:31:46;;;;;;;4.53;1.77;;;;;;;2.83;59.81;103562.22;5043731;28;20021;-64
2022/03/20 05:34:12;;;;;;;4.75;1.55;;;;;;;2.92;59.31;103541.50;5043628;28;20028;-64
2022/03/20 05:36:38;;;;;;;6.07;2.13;;;;;;;3.14;58.73;103558.47;5043409;28;20033;-64
2022/03/20 05:39:04;;;;;;;5.88;2.30;;;;;;;3.27;58.28;103564.50;5043384;28;20038;-64
2022/03/20 05:41:48;;;;;;;4.22;1.80;;;;;;;3.40;57.80;103558.56;5025253;28;20029;-63
2022/03/20 05:44:15;;;;;;;4.93;2.00;;;;;;;3.51;57.60;103557.69;5043532;28;20077;-63
2022/03/20 05:46:42;;;;;;;4.88;1.45;;;;;;;3.66;57.53;103559.56;5025213;28;20089;-63
2022/03/20 05:49:07;;;;;;;3.78;2.33;;;;;;;3.86;57.18;103558.41;5043270;28;20068;-63
2022/03/20 05:51:37;;;;;;;2.90;1.50;;;;;;;4.02;56.83;103560.38;5043508;28;20085;-63
2022/03/20 05:54:03;;;;;;;4.65;2.75;;;;;;;4.17;56.32;103554.53;5043280;28;20026;-63
2022/03/20 05:59:12;;;;;;;3.97;2.33;;;;;;;4.83;57.21;103531.44;5043166;28;20032;-64
2022/03/20 06:01:38;;;;;;;3.83;1.90;;;;;;;5.47;54.18;103566.44;5043196;28;20025;-64
2022/03/20 06:04:05;;;;;;;5.13;2.60;;;;;;;5.52;52.06;103551.28;5043181;28;20029;-64
2022/03/20 06:06:35;;;;;;;8.23;2.28;;;;;;;5.49;51.74;103557.13;5043049;28;20092;-65
2022/03/20 06:09:01;;;;;;;6.18;2.20;;;;;;;5.42;51.84;103567.81;5043211;28;20017;-64
2022/03/20 06:11:26;;;;;;;3.63;2.20;;;;;;;5.45;51.45;103566.34;5042914;28;20040;-65
2022/03/20 06:13:53;;;;;;;4.07;2.15;;;;;;;5.38;51.62;103546.16;5042904;28;20513;-63
2022/03/20 06:16:21;;;;;;;3.55;1.88;;;;;;;5.51;51.50;103554.66;5042600;28;20021;-64
2022/03/20 06:18:47;;;;;;;4.38;1.60;;;;;;;5.73;50.61;103571.47;5043121;28;20021;-64
2022/03/20 06:21:13;;;;;;;5.25;2.58;;;;;;;5.67;50.26;103543.63;5042708;28;20059;-64
2022/03/20 06:23:38;;;;;;;4.28;2.08;;;;;;;5.94;49.88;103570.22;5042920;28;20029;-64
2022/03/20 06:26:04;;;;;;;4.43;2.00;;;;;;;6.02;49.10;103552.63;5042610;28;20030;-64
2022/03/20 06:28:30;;;;;;;6.15;2.03;;;;;;;6.24;49.18;103571.16;5042894;28;20068;-64
2022/03/20 06:30:56;;;;;;;2.63;1.67;;;;;;;6.38;48.51;103567.75;5042712;28;20028;-63
2022/03/20 06:33:21;;;;;;;3.60;2.00;;;;;;;6.45;48.31;103551.81;5042648;28;20033;-63
2022/03/20 06:35:46;;;;;;;4.55;1.90;;;;;;;6.85;48.61;103573.06;5042647;28;20117;-63
2022/03/20 06:38:12;;;;;;;4.68;1.98;;;;;;;7.42;49.20;103572.81;5042281;28;20050;-63
2022/03/20 06:40:38;;;;;;;3.78;2.00;;;;;;;8.22;48.46;103571.88;5042880;28;20021;-64
2022/03/20 06:43:04;;;;;;;5.75;2.42;;;;;;;8.85;45.60;103567.28;5024779;28;20032;-64
2022/03/20 06:45:29;;;;;;;3.53;1.92;;;;;;;9.12;43.98;103572.06;5042616;28;20033;-64
2022/03/20 06:47:54;;;;;;;4.65;1.60;;;;;;;9.25;44.08;103568.38;5042387;28;20032;-64
2022/03/20 06:50:21;;;;;;;4.07;2.00;;;;;;;9.42;42.01;103567.44;5042577;28;20061;-64
2022/03/20 06:52:46;;;;;;;5.15;2.55;;;;;;;9.38;41.56;103557.75;5042620;28;20089;-64
2022/03/20 06:55:13;;;;;;;4.43;1.80;;;;;;;9.32;40.77;103561.75;5042495;28;20029;-65
2022/03/20 06:57:43;;;;;;;4.18;1.95;;;;;;;8.96;40.87;103560.06;5042356;28;20090;-64
2022/03/20 07:00:10;;;;;;;3.85;1.90;;;;;;;8.92;42.89;103564.19;5042479;28;20029;-64
2022/03/20 07:02:35;;;;;;;5.00;2.38;;;;;;;9.62;43.31;103564.00;5042286;28;20033;-64
2022/03/20 07:05:01;;;;;;;4.57;2.42;;;;;;;10.30;42.03;103563.59;5042561;28;20507;-64
2022/03/20 07:07:26;;;;;;;4.15;2.08;;;;;;;10.66;40.63;103568.63;5042338;28;20433;-65
2022/03/20 07:09:52;;;;;;;4.95;2.08;;;;;;;10.81;38.18;103577.91;5042558;28;20033;-65
2022/03/20 07:12:18;;;;;;;3.58;1.90;;;;;;;10.54;38.08;103574.16;5042176;28;20033;-65
2022/03/20 07:14:44;;;;;;;3.40;2.05;;;;;;;10.24;38.50;103576.31;5042319;28;20026;-65
2022/03/20 07:17:12;;;;;;;4.65;1.80;;;;;;;10.19;39.26;103576.13;5042340;28;20037;-65
2022/03/20 07:19:39;;;;;;;3.90;1.90;;;;;;;10.20;38.53;103576.97;5042379;28;20032;-66
2022/03/20 07:22:05;;;;;;;2.83;1.58;;;;;;;10.13;38.14;103584.50;5042285;28;20029;-65
2022/03/20 07:24:33;;;;;;;2.80;1.50;;;;;;;10.09;38.81;103577.41;5042479;28;20604;-65
2022/03/20 07:29:43;;;;;;;5.68;1.70;;;;;;;10.39;37.78;103584.78;5042442;28;20032;-65
2022/03/20 07:32:09;;;;;;;4.03;1.85;;;;;;;10.40;38.54;103576.16;5042125;28;20025;-65
2022/03/20 07:34:37;;;;;;;3.85;1.60;;;;;;;11.19;38.44;103575.09;5042267;28;20504;-65
2022/03/20 07:37:03;;;;;;;4.35;1.73;;;;;;;11.62;37.30;103585.41;5042168;28;20255;-65
2022/03/20 07:39:29;;;;;;;4.00;1.52;;;;;;;11.90;36.71;103576.91;5042180;28;20050;-67
2022/03/20 07:41:55;;;;;;;6.35;2.15;;;;;;;12.34;36.83;103568.09;5042127;28;20085;-64
2022/03/20 07:44:22;;;;;;;4.95;2.22;;;;;;;12.93;36.53;103573.50;5042446;28;20052;-64
2022/03/20 07:46:48;;;;;;;5.43;2.17;;;;;;;13.47;36.11;103577.81;5041755;28;20022;-67
2022/03/20 07:49:14;;;;;;;5.43;1.90;;;;;;;13.77;34.57;103570.00;5043199;28;20177;-67
2022/03/20 07:51:42;;;;;;;4.78;2.03;;;;;;;13.75;34.17;103575.19;5045614;28;20045;-67
2022/03/20 07:54:07;;;;;;;5.15;2.05;;;;;;;13.72;34.88;103568.13;5045617;28;20266;-66
2022/03/20 07:56:35;;;;;;;3.00;1.55;;;;;;;13.81;33.78;103561.41;5045317;28;20026;-67
2022/03/20 07:59:05;;;;;;;4.22;2.10;;;;;;;13.77;34.21;103575.22;5045677;28;20040;-67
2022/03/20 08:01:32;;;;;;;4.75;1.88;;;;;;;13.75;34.22;103570.81;5045537;28;20041;-67
2022/03/20 08:03:57;;;;;;;5.43;2.00;;;;;;;13.77;33.69;103564.78;5045604;28;20034;-66
2022/03/20 08:06:23;;;;;;;3.83;1.90;;;;;;;13.80;34.42;103565.72;5045093;28;20110;-66
2022/03/20 08:08:48;;;;;;;6.40;2.50;;;;;;;13.78;33.30;103562.22;5045303;28;20182;-65
2022/03/20 08:11:14;;;;;;;8.32;2.75;;;;;;;13.50;33.51;103569.19;5044740;28;20084;-66
2022/03/20 08:13:40;;;;;;;3.88;1.85;;;;;;;13.45;34.12;103561.22;5044984;28;20041;-66
2022/03/20 08:16:05;;;;;;;6.10;1.85;;;;;;;13.41;33.46;103564.56;5044884;28;20045;-66
2022/03/20 08:18:31;;;;;;;5.05;2.15;;;;;;;13.30;33.79;103565.97;5044815;28;20081;-66
2022/03/20 08:20:56;;;;;;;3.45;2.08;;;;;;;13.20;33.92;103554.34;5044775;28;20040;-67
2022/03/20 08:23:21;;;;;;;5.85;1.92;;;;;;;13.18;33.59;103567.34;5044827;28;20033;-69
2022/03/20 08:25:47;;;;;;;3.38;2.10;;;;;;;13.06;33.96;103564.34;5045170;28;20026;-68
2022/03/20 08:28:12;;;;;;;5.43;1.77;;;;;;;13.22;33.96;103566.63;5044795;28;20144;-67
2022/03/20 08:30:40;;;;;;;6.63;2.30;;;;;;;13.33;34.02;103564.34;5044891;28;20025;-66
2022/03/20 08:33:06;;;;;;;8.18;1.85;;;;;;;13.53;33.93;103560.59;5044808;28;20070;-64
2022/03/20 08:35:31;;;;;;;3.58;1.85;;;;;;;13.80;33.45;103552.69;5044786;28;20090;-65
2022/03/20 08:37:57;;;;;;;5.50;1.98;;;;;;;14.10;33.29;103543.94;5044318;28;20037;-65
2022/03/20 08:40:24;;;;;;;3.38;1.60;;;;;;;14.60;31.56;103544.34;5026925;28;20025;-62
2022/03/20 08:42:55;;;;;;;4.43;1.52;;;;;;;14.58;31.16;103541.72;5044335;28;20041;-64
2022/03/20 08:45:21;;;;;;;2.67;1.60;;;;;;;14.34;31.14;103540.22;5044640;28;20026;-64
2022/03/20 08:47:47;;;;;;;4.75;1.50;;;;;;;13.90;31.65;103543.38;5044499;28;20531;-64
2022/03/20 08:50:14;;;;;;;3.67;1.67;;;;;;;13.99;32.22;103537.53;5044952;28;20029;-65
2022/03/20 08:52:41;;;;;;;3.83;1.90;;;;;;;14.20;30.87;103533.75;5044630;28;20030;-63
2022/03/20 08:55:10;;;;;;;2.78;1.40;;;;;;;13.90;30.76;103537.28;5044244;28;20068;-64
2022/03/20 08:58:04;;;;;;;2.65;1.40;;;;;;;13.69;31.82;103531.47;5044099;28;20025;-66
2022/03/20 09:00:32;;;;;;;4.68;1.73;;;;;;;13.89;31.70;103528.56;5040330;28;20038;-66
2022/03/20 09:02:57;;;;;;;4.55;1.83;;;;;;;14.09;31.70;103517.78;5044231;28;20021;-67
2022/03/20 09:05:22;;;;;;;3.28;1.50;;;;;;;14.42;31.04;103519.50;5044706;28;20051;-63
2022/03/20 09:07:50;;;;;;;3.03;1.52;;;;;;;14.78;30.58;103512.53;5043957;28;20515;-67
2022/03/20 09:10:16;;;;;;;4.10;1.70;;;;;;;14.90;30.51;103514.59;5044307;28;20021;-67
2022/03/20 09:12:43;;;;;;;6.10;1.80;;;;;;;15.30;30.05;103495.41;5025893;28;20071;-66
2022/03/20 09:15:12;;;;;;;3.80;2.10;;;;;;;15.42;29.15;103510.47;5044115;28;20037;-68
2022/03/20 09:20:26;;;;;;;2.85;1.55;;;;;;;15.68;29.18;103502.28;5044102;28;20274;-68
2022/03/20 09:22:52;;;;;;;7.85;1.70;;;;;;;16.21;29.01;103506.78;5043908;28;20025;-68
2022/03/20 09:25:18;;;;;;;6.82;1.75;;;;;;;16.67;28.47;103507.53;5026047;28;20044;-68
2022/03/20 09:27:43;;;;;;;3.55;1.60;;;;;;;16.83;27.32;103504.28;5043849;28;20461;-68
2022/03/20 09:30:10;;;;;;;2.38;1.45;;;;;;;17.04;27.29;103515.97;5044147;28;20401;-67
2022/03/20 09:32:35;;;;;;;2.42;1.33;;;;;;;17.07;26.53;103502.88;5043900;28;20018;-68
2022/03/20 09:35:01;;;;;;;2.58;1.45;;;;;;;17.13;26.99;103494.22;5044044;28;20134;-68
2022/03/20 09:37:26;;;;;;;2.63;1.50;;;;;;;17.38;25.70;103491.03;5043403;28;20112;-68
2022/03/20 09:39:52;;;;;;;2.78;1.30;;;;;;;17.71;26.02;103480.06;5043441;28;20072;-70
2022/03/20 09:42:19;;;;;;;2.88;1.40;;;;;;;18.15;25.39;103484.84;5043397;28;20033;-68
2022/03/20 09:44:45;;;;;;;3.85;1.48;;;;;;;17.86;24.61;103482.81;5043474;28;20021;-69
2022/03/20 09:47:12;;;;;;;2.97;1.25;;;;;;;17.81;25.39;103481.00;5043203;28;20021;-69
2022/03/20 09:49:37;;;;;;;2.65;1.15;;;;;;;18.27;24.83;103492.88;5043111;28;20026;-69
2022/03/20 09:52:07;;;;;;;2.88;1.30;;;;;;;18.30;23.68;103497.25;5043005;28;20048;-69
2022/03/20 09:54:33;;;;;;;2.95;1.10;;;;;;;18.27;23.35;103484.97;5042979;28;20040;-69
2022/03/20 09:57:03;;;;;;;2.33;1.40;;;;;;;18.55;23.22;103481.66;5042883;28;20117;-68
2022/03/20 09:59:29;;;;;;;2.50;1.20;;;;;;;18.93;23.12;103483.66;5043139;28;20051;-69
2022/03/20 10:01:54;;;;;;;3.70;1.40;;;;;;;19.14;22.00;103473.25;5042910;28;20017;-69
2022/03/20 10:04:19;;;;;;;3.00;1.55;;;;;;;18.85;22.57;103460.81;5043201;28;20021;-70
2022/03/20 10:06:45;;;;;;;2.67;1.55;;;;;;;19.31;21.43;103458.41;5042855;28;20548;-68
2022/03/20 10:09:13;;;;;;;2.22;1.20;;;;;;;19.46;21.18;103469.88;5043139;28;20041;-68
2022/03/20 10:11:49;;;;;;;2.58;1.38;;;;;;;19.02;21.23;103448.63;5024603;28;20025;-69
2022/03/20 10:14:19;;;;;;;3.65;1.20;;;;;;;18.85;22.05;103452.91;5043051;28;20123;-71
2022/03/20 10:16:53;;;;;;;2.53;1.40;;;;;;;19.08;22.05;103451.28;5042686;28;20029;-72
2022/03/20 10:19:25;;;;;;;3.30;1.08;;;;;;;19.56;20.46;103458.50;5042997;28;20029;-72
2022/03/20 10:21:53;;;;;;;3.25;1.20;;;;;;;19.38;20.73;103459.31;5042899;28;20036;-73
2022/03/20 10:24:21;;;;;;;1.75;0.90;;;;;;;19.89;18.72;103449.78;5042812;28;20021;-70
2022/03/20 10:26:53;;;;;;;1.40;1.00;;;;;;;19.06;19.81;103450.38;5042224;28;20017;-73
2022/03/20 10:29:19;;;;;;;3.13;1.30;;;;;;;18.93;20.39;103448.59;5043064;28;20017;-71
2022/03/20 10:31:52;;;;;;;3.42;1.20;;;;;;;19.38;20.78;103455.78;5024883;28;20036;-70
2022/03/20 10:34:18;;;;;;;8.20;1.50;;;;;;;19.23;20.26;103448.72;5042547;28;20037;-76
2022/03/20 10:36:45;;;;;;;2.05;1.27;;;;;;;18.92;20.00;103446.81;5042628;28;20030;-74
2022/03/20 10:39:15;;;;;;;3.63;1.10;;;;;;;18.75;19.94;103450.25;5024747;28;20060;-68
2022/03/20 10:41:41;;;;;;;5.78;1.33;;;;;;;18.48;20.27;103440.41;5042707;28;20474;-74
2022/03/20 10:44:19;;;;;;;1.38;0.88;;;;;;;18.57;19.61;103445.72;5043088;28;20068;-66
2022/03/20 10:47:04;;;;;;;3.92;1.02;;;;;;;18.49;19.41;103439.53;5043033;28;20041;-73
2022/03/20 10:49:31;;;;;;;1.45;0.90;;;;;;;18.38;19.14;103429.84;5042991;28;20045;-69
2022/03/20 10:52:11;;;;;;;1.80;0.80;;;;;;;18.22;19.28;103431.47;5025416;28;20361;-69
2022/03/20 10:54:43;;;;;;;3.03;1.02;;;;;;;18.67;19.42;103423.00;5043219;28;20496;-70
2022/03/20 10:57:11;;;;;;;1.35;0.77;;;;;;;19.01;17.86;103409.97;5042704;28;20064;-66
2022/03/20 10:59:38;;;;;;;6.35;1.13;;;;;;;18.52;18.18;103408.88;5042893;28;20022;-70
2022/03/20 11:02:05;;;;;;;2.05;1.13;;;;;;;18.39;17.53;103409.66;5042892;28;20088;-70
2022/03/20 11:04:32;;;;;;;2.42;0.85;;;;;;;17.63;16.24;103402.00;5042843;28;20025;-67
2022/03/20 11:07:00;;;;;;;2.95;1.13;;;;;;;17.06;17.42;103411.84;5042445;28;20041;-67
2022/03/20 11:09:25;;;;;;;2.33;0.95;;;;;;;16.64;17.65;103413.06;5042797;28;20021;-69
2022/03/20 11:11:57;;;;;;;2.47;1.13;;;;;;;16.47;17.82;103401.44;5042209;28;20045;-69
2022/03/20 11:14:24;;;;;;;1.95;0.90;;;;;;;16.81;17.71;103403.66;5042685;28;20013;-66
2022/03/20 11:16:53;;;;;;;1.35;0.98;;;;;;;16.57;18.09;103407.72;5042203;28;20029;-72
2022/03/20 11:19:29;;;;;;;1.40;0.90;;;;;;;16.55;17.86;103400.69;5042397;28;20073;-68
2022/03/20 11:21:59;;;;;;;3.90;1.15;;;;;;;16.80;17.81;103404.53;5042130;28;20544;-71
2022/03/20 11:24:25;;;;;;;2.92;1.13;;;;;;;17.48;18.33;103395.72;5044253;28;20045;-71
2022/03/20 11:26:53;;;;;;;2.53;0.73;;;;;;;17.95;17.65;103397.06;5045993;28;20362;-71
2022/03/20 11:29:21;;;;;;;5.30;1.08;;;;;;;18.38;17.32;103389.50;5046316;28;20029;-69
2022/03/20 11:31:47;;;;;;;5.00;1.00;;;;;;;18.38;16.88;103385.13;5028078;28;20026;-74
2022/03/20 11:34:14;;;;;;;2.78;0.95;;;;;;;18.21;16.64;103375.34;5046147;28;20053;-64
2022/03/20 11:37:05;;;;;;;1.77;0.95;;;;;;;17.80;16.94;103376.78;5045781;28;20462;-70
2022/03/20 11:39:32;;;;;;;2.35;1.00;;;;;;;17.01;17.82;103365.44;5045672;28;20045;-69
2022/03/20 11:42:23;;;;;;;2.70;1.00;;;;;;;16.19;18.24;103363.44;5045591;28;20445;-68
2022/03/20 11:45:10;;;;;;;3.15;1.83;;;;;;;15.85;19.56;103367.25;5045982;28;20028;-76
2022/03/20 11:47:41;;;;;;;3.03;1.10;;;;;;;15.78;19.48;103357.56;5027972;28;20022;-70
2022/03/20 11:50:06;;;;;;;5.68;1.13;;;;;;;14.97;20.32;103354.28;5045764;28;20401;-67
2022/03/20 11:52:48;;;;;;;2.13;0.95;;;;;;;14.19;20.86;103355.19;5045551;28;20033;-70
2022/03/20 11:55:51;;;;;;;3.50;0.95;;;;;;;13.09;22.14;103351.47;5046007;28;20104;-68
2022/03/20 11:58:16;;;;;;;1.63;0.90;;;;;;;12.59;22.97;103349.09;4964432;28;20035;-71
2022/03/20 12:00:44;;;;;;;2.75;1.30;;;;;;;12.12;23.62;103343.34;4964480;29;20071;-73
2022/03/20 12:03:10;;;;;;;4.68;1.42;;;;;;;11.65;24.30;103336.59;4964325;29;20122;-71